Time;durP1;ratioP1;P1;durP2;ratioP2;P2;SDS_P1;SDS_P2;PMS_P1;PMS_P2;Temp;Humidity;BMP_temperature;BMP_pressure;BME280_temperature;BME280_humidity;BME280_pressure;Samples;Min_cycle;Max_cycle;Signal;HPM_P1;HPM_P2
2022/09/25 00:00:07;;;;;;;13.05;10.98;;;;;;;13.46;100.00;98254.84;5020521;28;20030;-57
2022/09/25 00:02:32;;;;;;;13.52;11.15;;;;;;;13.48;100.00;98246.84;5017041;28;20466;-58
2022/09/25 00:04:58;;;;;;;11.63;10.43;;;;;;;13.40;100.00;98247.72;5021931;28;20492;-58
2022/09/25 00:07:23;;;;;;;12.02;10.05;;;;;;;13.21;100.00;98212.34;5015214;28;20042;-56
2022/09/25 00:09:49;;;;;;;11.25;9.20;;;;;;;13.30;100.00;98208.72;4977361;28;20033;-58
2022/09/25 00:12:14;;;;;;;11.15;9.55;;;;;;;13.07;100.00;98195.63;5013597;28;20445;-57
2022/09/25 00:14:40;;;;;;;10.70;8.90;;;;;;;13.20;100.00;98242.88;5022072;28;20037;-57
2022/09/25 00:17:05;;;;;;;12.73;9.98;;;;;;;13.17;100.00;98231.94;4997933;28;20041;-57
2022/09/25 00:19:49;;;;;;;11.10;9.30;;;;;;;13.16;100.00;98238.97;5003170;28;20445;-56
2022/09/25 00:22:15;;;;;;;11.05;9.30;;;;;;;13.12;100.00;98227.22;5016203;28;20037;-57
2022/09/25 00:24:40;;;;;;;11.93;9.45;;;;;;;13.27;100.00;98233.38;5014676;28;20722;-56
2022/09/25 00:27:07;;;;;;;11.43;9.73;;;;;;;13.10;100.00;98202.28;5019090;28;20074;-56
2022/09/25 00:29:33;;;;;;;11.80;9.93;;;;;;;13.40;100.00;98232.03;5005302;28;20117;-57
2022/09/25 00:31:58;;;;;;;12.68;10.45;;;;;;;13.21;100.00;98231.44;5024471;28;21472;-56
2022/09/25 00:34:23;;;;;;;11.43;9.48;;;;;;;13.26;100.00;98225.69;5018707;28;20038;-57
2022/09/25 00:36:49;;;;;;;11.68;9.75;;;;;;;13.28;100.00;98221.13;5022841;28;20116;-56
2022/09/25 00:39:14;;;;;;;12.13;9.60;;;;;;;13.06;100.00;98178.31;5024759;28;20033;-56
2022/09/25 00:41:40;;;;;;;11.50;9.77;;;;;;;13.39;100.00;98230.41;5021564;28;20034;-61
2022/09/25 00:44:43;;;;;;;12.98;10.05;;;;;;;13.23;100.00;98224.25;5011664;28;20068;-57
2022/09/25 00:47:09;;;;;;;11.93;9.82;;;;;;;13.28;100.00;98213.28;5025077;28;20524;-57
2022/09/25 00:49:35;;;;;;;14.00;11.15;;;;;;;13.35;100.00;98214.25;5005872;28;20148;-57
2022/09/25 00:52:05;;;;;;;13.02;10.85;;;;;;;13.34;100.00;98211.81;5016610;28;20501;-57
2022/09/25 00:54:37;;;;;;;14.18;11.80;;;;;;;13.29;100.00;98199.25;5007495;28;20033;-57
2022/09/25 00:57:09;;;;;;;12.68;11.15;;;;;;;13.18;100.00;98189.19;5026206;28;20029;-57
2022/09/25 00:59:38;;;;;;;14.30;11.73;;;;;;;13.22;100.00;98196.50;5016488;28;20068;-58
2022/09/25 01:02:04;;;;;;;12.67;10.43;;;;;;;13.22;100.00;98193.09;5022291;28;20594;-57
2022/09/25 01:04:31;;;;;;;15.60;11.10;;;;;;;13.29;100.00;98188.81;5004602;28;20386;-58
2022/09/25 01:06:57;;;;;;;12.77;10.70;;;;;;;13.12;100.00;98148.91;5022827;28;20030;-57
2022/09/25 01:09:23;;;;;;;12.63;10.02;;;;;;;12.96;100.00;98142.00;5003887;28;20033;-57
2022/09/25 01:11:48;;;;;;;11.88;10.32;;;;;;;13.12;100.00;98171.59;5022454;28;20055;-57
2022/09/25 01:14:16;;;;;;;13.13;11.10;;;;;;;12.95;100.00;98160.44;5009817;28;20473;-57
2022/09/25 01:17:18;;;;;;;12.50;10.02;;;;;;;12.98;100.00;98163.53;5021507;28;20028;-57
2022/09/25 01:20:21;;;;;;;12.82;10.77;;;;;;;12.91;100.00;98146.94;5021875;28;20141;-57
2022/09/25 01:22:56;;;;;;;13.05;10.48;;;;;;;12.98;100.00;98153.09;5012927;28;20021;-56
2022/09/25 01:25:44;;;;;;;12.30;10.18;;;;;;;12.73;100.00;98107.25;5023399;28;20144;-56
2022/09/25 01:28:31;;;;;;;13.85;11.43;;;;;;;12.98;100.00;98149.69;5022639;28;20021;-58
2022/09/25 01:31:01;;;;;;;13.63;11.10;;;;;;;12.89;100.00;98144.50;5027067;28;20088;-56
2022/09/25 01:33:34;;;;;;;11.60;10.27;;;;;;;12.96;100.00;98160.28;5017433;28;20053;-58
2022/09/25 01:36:10;;;;;;;13.23;11.25;;;;;;;12.95;100.00;98148.22;5004351;28;20037;-56
2022/09/25 01:38:52;;;;;;;14.00;10.65;;;;;;;12.98;100.00;98154.91;5022468;28;20036;-57
2022/09/25 01:41:28;;;;;;;14.05;11.00;;;;;;;12.69;100.00;98107.56;5017521;28;20436;-57
2022/09/25 01:44:12;;;;;;;12.88;11.05;;;;;;;13.01;100.00;98149.31;5000699;28;20041;-58
2022/09/25 01:46:45;;;;;;;13.38;10.65;;;;;;;12.75;100.00;98110.47;5025537;28;20056;-56
2022/09/25 01:49:17;;;;;;;13.57;11.40;;;;;;;13.04;100.00;98151.59;5004644;28;20573;-59
2022/09/25 01:51:47;;;;;;;13.35;10.57;;;;;;;13.05;100.00;98148.81;5016508;28;20068;-58
2022/09/25 01:54:24;;;;;;;13.77;10.85;;;;;;;13.13;100.00;98140.13;5024619;28;20039;-58
2022/09/25 01:56:54;;;;;;;13.32;11.30;;;;;;;13.01;100.00;98134.47;5015193;28;20060;-57
2022/09/25 01:59:22;;;;;;;;;;;;;;;13.05;100.00;98132.31;5023076;28;20090;-56
2022/09/25 02:01:48;;;;;;;12.95;10.65;;;;;;;12.99;100.00;98127.81;5014085;28;19909;-57
2022/09/25 02:04:22;;;;;;;13.93;11.75;;;;;;;12.96;100.00;98126.38;5021431;28;20045;-57
2022/09/25 02:06:48;;;;;;;13.00;10.70;;;;;;;13.02;100.00;98133.50;5015264;28;20025;-57
2022/09/25 02:09:45;;;;;;;12.70;10.10;;;;;;;13.06;100.00;98129.53;5002979;28;20059;-57
2022/09/25 02:12:14;;;;;;;12.32;10.27;;;;;;;13.07;100.00;98119.94;4998314;28;20049;-59
2022/09/25 02:14:48;;;;;;;11.33;9.87;;;;;;;13.06;100.00;98111.28;5020618;28;20488;-58
2022/09/25 02:20:30;;;;;;;12.27;10.15;;;;;;;13.07;100.00;98109.50;5032236;28;20276;-57
2022/09/25 02:22:51;;;;;;;11.25;9.10;;;;;;;13.08;100.00;98116.31;5023070;28;19967;-57
2022/09/25 02:25:25;;;;;;;10.93;8.60;;;;;;;13.07;100.00;98105.09;5023441;28;20033;-57
2022/09/25 02:27:50;;;;;;;10.85;9.18;;;;;;;12.98;100.00;98116.56;5013263;28;20025;-57
2022/09/25 02:30:16;;;;;;;10.82;8.98;;;;;;;12.70;100.00;98069.25;5022653;28;20691;-57
2022/09/25 02:32:41;;;;;;;11.07;8.38;;;;;;;13.01;100.00;98103.16;5025224;28;20491;-57
2022/09/25 02:35:07;;;;;;;11.20;8.88;;;;;;;13.00;100.00;98093.72;5004789;28;20194;-56
2022/09/25 02:37:33;;;;;;;10.57;8.27;;;;;;;13.09;100.00;98107.53;5004500;28;20033;-57
2022/09/25 02:40:00;;;;;;;10.40;8.15;;;;;;;12.98;100.00;98098.28;5022451;28;20549;-57
2022/09/25 02:42:41;;;;;;;11.20;8.95;;;;;;;12.99;100.00;98093.88;5019343;28;20026;-57
2022/09/25 02:45:30;;;;;;;9.73;7.93;;;;;;;12.97;100.00;98090.63;5017274;28;20091;-57
2022/09/25 02:48:19;;;;;;;9.87;7.43;;;;;;;12.98;100.00;98087.06;4993104;28;20502;-56
2022/09/25 02:50:53;;;;;;;9.70;7.90;;;;;;;13.00;100.00;98070.22;5021522;28;20639;-57
2022/09/25 02:53:40;;;;;;;9.88;7.53;;;;;;;12.98;100.00;98076.63;5019892;28;20272;-58
2022/09/25 02:56:09;;;;;;;9.70;7.32;;;;;;;12.97;100.00;98062.72;5018305;28;20045;-58
2022/09/25 02:58:37;;;;;;;;;;;;;;;13.04;100.00;98052.41;5020850;28;20716;-56
2022/09/25 03:01:05;;;;;;;9.63;7.60;;;;;;;12.94;100.00;98044.00;5020264;28;19917;-58
2022/09/25 03:03:31;;;;;;;11.68;7.50;;;;;;;12.97;100.00;98056.72;5016360;28;20055;-56
2022/09/25 03:05:56;;;;;;;9.85;7.88;;;;;;;12.85;100.00;98044.06;5021554;28;20056;-57
2022/09/25 03:08:38;;;;;;;10.63;8.80;;;;;;;12.79;100.00;98052.56;5020962;28;20071;-57
2022/09/25 03:11:12;;;;;;;10.70;8.20;;;;;;;12.79;100.00;98051.75;5005482;28;20038;-58
2022/09/25 03:13:39;;;;;;;11.60;8.73;;;;;;;12.84;100.00;98060.69;5019562;28;20029;-58
2022/09/25 03:16:17;;;;;;;12.80;9.43;;;;;;;12.64;100.00;98028.22;5019379;28;20791;-57
2022/09/25 03:18:43;;;;;;;12.48;9.95;;;;;;;12.86;100.00;98069.16;5023720;28;20036;-58
2022/09/25 03:21:09;;;;;;;12.13;9.60;;;;;;;12.85;100.00;98074.53;5001742;28;20037;-56
2022/09/25 03:23:34;;;;;;;12.43;10.38;;;;;;;12.96;100.00;98076.78;5022064;28;20040;-57
2022/09/25 03:26:00;;;;;;;12.95;10.43;;;;;;;12.94;100.00;98065.72;5018594;28;20045;-57
2022/09/25 03:28:26;;;;;;;13.48;10.82;;;;;;;12.96;100.00;98053.28;5005611;28;20030;-58
2022/09/25 03:30:59;;;;;;;14.13;10.80;;;;;;;12.88;100.00;98048.91;5020521;28;20468;-57
2022/09/25 03:33:26;;;;;;;12.75;10.18;;;;;;;12.96;100.00;98063.72;5020528;28;20096;-58
2022/09/25 03:36:08;;;;;;;13.07;10.35;;;;;;;12.83;100.00;98048.66;5018434;28;20053;-56
2022/09/25 03:38:33;;;;;;;12.45;10.40;;;;;;;12.70;100.00;98032.72;5018256;28;20038;-56
2022/09/25 03:40:59;;;;;;;12.98;10.20;;;;;;;12.92;100.00;98049.38;5002371;28;20027;-58
2022/09/25 03:43:24;;;;;;;12.05;9.60;;;;;;;12.90;100.00;98059.19;5032853;28;20131;-57
2022/09/25 03:45:50;;;;;;;12.55;9.77;;;;;;;12.80;100.00;98053.41;5004872;28;20032;-57
2022/09/25 03:48:16;;;;;;;11.82;9.65;;;;;;;12.86;100.00;98053.50;5007888;28;20033;-57
2022/09/25 03:50:41;;;;;;;11.30;8.52;;;;;;;12.71;100.00;98017.91;5001504;28;20043;-58
2022/09/25 03:53:07;;;;;;;11.38;8.50;;;;;;;12.85;100.00;98038.84;5020323;28;20121;-57
2022/09/25 03:55:32;;;;;;;10.35;8.55;;;;;;;12.85;100.00;98051.91;5018638;28;20034;-57
2022/09/25 03:57:58;;;;;;;10.57;8.00;;;;;;;12.82;100.00;98052.22;5004751;28;20502;-57
2022/09/25 04:00:24;;;;;;;10.32;7.75;;;;;;;12.59;100.00;98010.47;4993403;28;20062;-56
2022/09/25 04:02:49;;;;;;;9.10;6.97;;;;;;;12.94;100.00;98050.06;4999225;28;20114;-57
2022/09/25 04:05:15;;;;;;;11.95;8.55;;;;;;;12.89;100.00;98054.97;5023311;28;20140;-57
2022/09/25 04:07:41;;;;;;;10.98;8.27;;;;;;;12.81;100.00;98041.97;4999608;28;20099;-57
2022/09/25 04:10:07;;;;;;;8.98;7.47;;;;;;;12.86;100.00;98053.50;5013503;28;20124;-57
2022/09/25 04:12:32;;;;;;;8.93;6.95;;;;;;;12.79;100.00;98023.88;5003944;28;20144;-57
2022/09/25 04:14:57;;;;;;;9.65;6.65;;;;;;;13.02;100.00;98052.59;5011874;28;20087;-57
2022/09/25 04:17:23;;;;;;;8.60;6.55;;;;;;;13.06;100.00;98046.03;5023453;28;20044;-58
2022/09/25 04:19:49;;;;;;;8.70;6.35;;;;;;;13.08;100.00;98040.63;5021021;28;20036;-58
2022/09/25 04:22:14;;;;;;;8.77;6.68;;;;;;;12.89;100.00;98019.25;5024018;28;20443;-57
2022/09/25 04:24:49;;;;;;;9.13;6.80;;;;;;;13.03;100.00;98056.84;5024498;28;20055;-57
2022/09/25 04:27:21;;;;;;;7.93;6.13;;;;;;;12.99;100.00;98060.75;5024381;28;20029;-56
2022/09/25 04:29:46;;;;;;;9.13;6.50;;;;;;;12.97;100.00;98067.16;5021994;28;20120;-57
2022/09/25 04:34:57;;;;;;;9.55;7.00;;;;;;;13.14;100.00;98065.22;5024103;28;20044;-57
2022/09/25 04:37:25;;;;;;;9.40;7.47;;;;;;;12.94;100.00;98042.22;5006916;28;20037;-56
2022/09/25 04:39:54;;;;;;;9.15;6.65;;;;;;;13.01;100.00;98064.00;5024074;28;20052;-58
2022/09/25 04:42:23;;;;;;;8.35;6.57;;;;;;;12.93;100.00;98043.19;5006230;28;20048;-56
2022/09/25 04:44:53;;;;;;;11.73;7.77;;;;;;;12.74;100.00;98014.94;5011525;28;20512;-57
2022/09/25 04:47:20;;;;;;;9.85;7.78;;;;;;;13.02;100.00;98059.63;5022734;28;20036;-56
2022/09/25 04:49:46;;;;;;;8.90;6.85;;;;;;;13.05;100.00;98051.41;5020784;28;20049;-58
2022/09/25 04:52:13;;;;;;;8.90;6.60;;;;;;;13.03;100.00;98056.00;5022443;28;20445;-57
2022/09/25 04:54:39;;;;;;;9.25;7.13;;;;;;;12.99;100.00;98046.91;5022168;28;20125;-57
2022/09/25 04:57:04;;;;;;;10.40;7.50;;;;;;;13.05;100.00;98054.03;5023880;28;20108;-57
2022/09/25 04:59:30;;;;;;;9.68;7.50;;;;;;;12.97;100.00;98041.03;5021789;28;20049;-57
2022/09/25 05:01:55;;;;;;;9.70;7.15;;;;;;;12.81;100.00;98010.66;5023472;28;20060;-57
2022/09/25 05:04:21;;;;;;;9.52;7.30;;;;;;;13.00;100.00;98053.75;5005858;28;20029;-57
2022/09/25 05:06:47;;;;;;;8.35;6.85;;;;;;;13.03;100.00;98046.41;5020861;28;20029;-57
2022/09/25 05:09:12;;;;;;;9.15;6.60;;;;;;;13.04;100.00;98042.78;5022643;28;20400;-57
2022/09/25 05:11:37;;;;;;;8.98;6.68;;;;;;;13.02;100.00;98041.34;5005718;28;20057;-57
2022/09/25 05:14:03;;;;;;;8.20;6.32;;;;;;;13.01;100.00;98039.72;5016608;28;20041;-57
2022/09/25 05:16:29;;;;;;;8.18;6.35;;;;;;;12.98;100.00;98047.91;5006553;28;20444;-58
2022/09/25 05:18:55;;;;;;;8.15;6.30;;;;;;;13.02;100.00;98039.53;5003179;28;20060;-57
2022/09/25 05:21:21;;;;;;;8.75;6.60;;;;;;;13.00;100.00;98044.13;5003993;28;20021;-58
2022/09/25 05:23:46;;;;;;;7.68;5.70;;;;;;;12.95;100.00;98046.44;5024557;28;20214;-57
2022/09/25 05:26:12;;;;;;;7.88;5.25;;;;;;;13.02;100.00;98038.75;5025879;28;20042;-58
2022/09/25 05:28:37;;;;;;;7.55;5.63;;;;;;;12.96;100.00;98032.41;5001323;28;20022;-57
2022/09/25 05:31:03;;;;;;;8.27;5.43;;;;;;;12.99;100.00;98037.25;5000583;28;20052;-58
2022/09/25 05:33:33;;;;;;;7.70;5.50;;;;;;;12.93;100.00;98026.72;5033617;28;20053;-57
2022/09/25 05:36:03;;;;;;;6.95;5.22;;;;;;;12.92;100.00;98033.72;5022139;28;20029;-59
2022/09/25 05:38:32;;;;;;;9.95;5.63;;;;;;;12.88;100.00;98035.88;5029708;28;20068;-57
2022/09/25 05:41:05;;;;;;;7.78;5.65;;;;;;;12.74;100.00;98005.34;5019084;28;20034;-57
2022/09/25 05:43:31;;;;;;;8.50;5.57;;;;;;;12.88;100.00;98035.88;5020636;28;20496;-58
2022/09/25 05:45:57;;;;;;;7.68;5.50;;;;;;;12.83;100.00;98037.38;5001451;28;20032;-57
2022/09/25 05:48:23;;;;;;;9.80;6.30;;;;;;;12.92;100.00;98025.91;5020837;28;20117;-57
2022/09/25 05:50:53;;;;;;;7.90;6.20;;;;;;;12.71;100.00;97982.19;5001640;28;20124;-58
2022/09/25 05:53:19;;;;;;;8.77;6.43;;;;;;;12.93;100.00;98018.91;5014802;28;20030;-57
2022/09/25 05:55:51;;;;;;;8.00;6.22;;;;;;;12.77;100.00;98004.97;5022586;28;20128;-57
2022/09/25 05:58:17;;;;;;;8.50;6.07;;;;;;;12.79;100.00;98004.81;5021641;28;20091;-57
2022/09/25 06:00:43;;;;;;;8.27;5.93;;;;;;;12.91;100.00;98010.44;5017122;28;20029;-63
2022/09/25 06:03:09;;;;;;;8.30;6.18;;;;;;;12.93;100.00;98018.91;5013310;28;20060;-57
2022/09/25 06:05:35;;;;;;;9.57;6.50;;;;;;;12.87;100.00;98015.19;5012854;28;20041;-57
2022/09/25 06:08:00;;;;;;;7.68;5.82;;;;;;;12.83;100.00;98006.91;5020949;28;20036;-58
2022/09/25 06:10:26;;;;;;;8.80;6.43;;;;;;;12.87;100.00;98017.81;5002537;28;20030;-57
2022/09/25 06:12:57;;;;;;;8.27;6.30;;;;;;;12.93;100.00;98008.47;5020125;28;20104;-57
2022/09/25 06:15:22;;;;;;;9.73;6.97;;;;;;;12.68;100.00;97964.28;5023149;28;20026;-57
2022/09/25 06:17:48;;;;;;;9.40;6.78;;;;;;;12.83;100.00;98004.28;5017444;28;20039;-57
2022/09/25 06:20:14;;;;;;;9.02;6.95;;;;;;;12.90;100.00;98012.22;5018648;28;20433;-57
2022/09/25 06:22:39;;;;;;;8.15;6.28;;;;;;;12.89;100.00;98015.84;5013572;28;20839;-57
2022/09/25 06:25:05;;;;;;;7.85;5.85;;;;;;;12.86;100.00;98016.97;5019477;28;20488;-57
2022/09/25 06:27:30;;;;;;;7.80;5.55;;;;;;;12.90;100.00;98009.59;5014373;28;20400;-57
2022/09/25 06:29:56;;;;;;;7.85;5.45;;;;;;;12.99;100.00;98008.56;5017473;28;20025;-57
2022/09/25 06:32:22;;;;;;;7.32;5.30;;;;;;;12.88;100.00;98004.56;4999997;28;20040;-58
2022/09/25 06:34:47;;;;;;;7.10;5.20;;;;;;;12.89;100.00;97995.75;5019401;28;20026;-56
2022/09/25 06:37:13;;;;;;;6.80;5.20;;;;;;;12.92;100.00;97994.59;5018592;28;20034;-58
2022/09/25 06:39:38;;;;;;;7.35;4.85;;;;;;;12.93;100.00;97991.00;5001542;28;20489;-57
2022/09/25 06:42:04;;;;;;;7.38;5.07;;;;;;;12.93;100.00;97993.63;5019731;28;20183;-57
2022/09/25 06:44:29;;;;;;;6.78;5.07;;;;;;;12.88;100.00;97990.72;5019939;28;20030;-57
2022/09/25 06:46:55;;;;;;;7.20;5.28;;;;;;;13.02;100.00;97997.78;5021797;28;20391;-57
2022/09/25 06:49:21;;;;;;;6.75;4.70;;;;;;;13.03;100.00;97998.59;5004516;28;20149;-58
2022/09/25 06:51:47;;;;;;;6.82;4.68;;;;;;;13.03;100.00;98006.41;5018942;28;20040;-57
2022/09/25 06:54:12;;;;;;;8.40;5.15;;;;;;;13.11;100.00;98005.56;5019242;28;20265;-58
2022/09/25 06:56:38;;;;;;;8.25;5.53;;;;;;;13.24;100.00;98008.38;5020375;28;20487;-58
2022/09/25 06:59:03;;;;;;;6.68;4.80;;;;;;;13.30;100.00;98012.09;5005048;28;20128;-57
2022/09/25 07:01:29;;;;;;;8.55;5.00;;;;;;;13.36;100.00;98011.41;4999512;28;20338;-58
2022/09/25 07:03:54;;;;;;;7.72;4.85;;;;;;;13.45;100.00;98015.56;4993550;28;20067;-58
2022/09/25 07:06:23;;;;;;;7.07;5.28;;;;;;;13.43;100.00;98002.69;5017710;28;20044;-57
2022/09/25 07:08:49;;;;;;;6.38;4.93;;;;;;;13.31;100.00;97969.38;5020143;28;20033;-58
2022/09/25 07:11:20;;;;;;;7.35;5.25;;;;;;;13.51;100.00;97996.59;5017683;28;20609;-58
2022/09/25 07:13:45;;;;;;;7.32;5.43;;;;;;;13.75;100.00;98018.22;5020579;28;20033;-58
2022/09/25 07:16:14;;;;;;;7.22;4.97;;;;;;;13.60;100.00;97979.84;5019059;28;20860;-56
2022/09/25 07:18:39;;;;;;;7.95;5.57;;;;;;;13.91;100.00;98025.06;5019264;28;20036;-58
2022/09/25 07:21:15;;;;;;;6.95;5.22;;;;;;;13.96;100.00;98031.41;5005308;28;20037;-57
2022/09/25 07:23:41;;;;;;;6.45;4.95;;;;;;;13.86;100.00;98030.84;5002597;28;20095;-58
2022/09/25 07:26:12;;;;;;;7.40;5.45;;;;;;;13.99;100.00;98036.25;5016953;28;20037;-57
2022/09/25 07:28:39;;;;;;;7.15;5.25;;;;;;;14.05;100.00;98032.09;4997484;28;20022;-57
2022/09/25 07:31:16;;;;;;;7.78;5.47;;;;;;;14.07;100.00;98031.91;5017965;28;20423;-57
2022/09/25 07:33:42;;;;;;;8.18;4.75;;;;;;;14.01;100.00;98036.88;5001697;28;20549;-57
2022/09/25 07:36:08;;;;;;;6.72;4.55;;;;;;;14.08;100.00;98042.19;4994362;28;20034;-58
2022/09/25 07:38:35;;;;;;;6.32;4.55;;;;;;;14.23;100.00;98034.34;5016869;28;20048;-58
2022/09/25 07:41:05;;;;;;;6.35;4.75;;;;;;;14.29;100.00;98035.41;5023043;28;20033;-57
2022/09/25 07:43:33;;;;;;;7.50;5.28;;;;;;;14.27;100.00;98038.19;5019786;28;20329;-58
2022/09/25 07:45:59;;;;;;;6.25;4.72;;;;;;;14.37;100.00;98033.50;5017480;28;20029;-58
2022/09/25 07:48:26;;;;;;;6.70;4.85;;;;;;;14.43;100.00;98037.19;5033650;28;20033;-57
2022/09/25 07:50:52;;;;;;;7.03;4.97;;;;;;;14.54;100.00;98036.72;4999785;28;20026;-57
2022/09/25 07:53:17;;;;;;;7.03;5.10;;;;;;;14.55;99.31;98035.72;5013140;28;20117;-57
2022/09/25 07:55:46;;;;;;;7.05;4.90;;;;;;;14.63;99.87;98034.03;5018497;28;20056;-58
2022/09/25 07:58:12;;;;;;;7.03;5.05;;;;;;;14.70;98.64;98033.09;4992411;28;20596;-58
2022/09/25 08:00:39;;;;;;;7.65;4.97;;;;;;;14.77;98.85;98031.38;5017405;28;20052;-57
2022/09/25 08:03:05;;;;;;;7.20;5.10;;;;;;;14.80;98.95;98031.00;5013012;28;20033;-57
2022/09/25 08:05:31;;;;;;;7.25;5.22;;;;;;;14.82;97.81;98028.19;5017717;28;20036;-57
2022/09/25 08:07:56;;;;;;;6.75;4.82;;;;;;;14.76;98.52;98021.09;5013888;28;20029;-57
2022/09/25 08:10:22;;;;;;;7.32;5.05;;;;;;;14.83;96.17;98027.19;4986927;28;20523;-58
2022/09/25 08:12:48;;;;;;;7.25;5.15;;;;;;;14.79;95.20;98029.38;5014356;28;20088;-57
2022/09/25 08:15:13;;;;;;;6.57;4.65;;;;;;;14.64;92.91;98038.25;5016434;28;20063;-58
2022/09/25 08:17:40;;;;;;;6.85;5.13;;;;;;;14.66;93.35;98042.31;4992295;28;20037;-58
2022/09/25 08:20:06;;;;;;;6.63;4.65;;;;;;;14.65;93.35;98048.53;5015680;28;20056;-58
2022/09/25 08:22:32;;;;;;;6.78;4.72;;;;;;;14.49;93.33;98054.75;5017528;28;20129;-58
2022/09/25 08:25:01;;;;;;;6.78;4.60;;;;;;;14.46;94.66;98065.59;5013946;28;20052;-57
2022/09/25 08:27:26;;;;;;;6.85;4.75;;;;;;;14.52;94.83;98054.41;5018351;28;20798;-56
2022/09/25 08:29:52;;;;;;;6.90;4.65;;;;;;;14.60;95.04;98061.34;5016328;28;20045;-57
2022/09/25 08:32:17;;;;;;;6.40;4.65;;;;;;;14.67;95.71;98057.00;4997194;28;20477;-58
2022/09/25 08:34:42;;;;;;;6.30;4.38;;;;;;;14.54;97.05;98018.41;5015866;28;20548;-57
2022/09/25 08:37:09;;;;;;;8.25;4.80;;;;;;;14.86;95.20;98055.63;5016426;28;20029;-58
2022/09/25 08:39:34;;;;;;;6.30;4.32;;;;;;;14.88;96.60;98042.34;5021821;28;20041;-58
2022/09/25 08:42:00;;;;;;;7.80;4.80;;;;;;;15.03;97.08;98048.34;5010274;28;20072;-60
2022/09/25 08:44:36;;;;;;;6.97;4.75;;;;;;;14.96;93.07;98044.84;5020182;28;20052;-57
2022/09/25 08:50:17;;;;;;;6.50;4.47;;;;;;;14.99;95.82;98034.81;5009608;28;20099;-57
2022/09/25 08:52:47;;;;;;;5.57;3.92;;;;;;;14.86;93.03;97994.59;5010575;28;20030;-58
2022/09/25 08:56:13;;;;;;;7.28;5.10;;;;;;;15.11;92.76;98022.03;5025269;28;20053;-57
2022/09/25 08:58:26;;;;;;;6.18;4.28;;;;;;;15.09;91.22;98008.31;5014155;28;20046;-57
2022/09/25 09:01:00;;;;;;;6.13;4.35;;;;;;;15.13;91.14;98004.31;5007171;28;20428;-58
2022/09/25 09:03:29;;;;;;;6.30;4.50;;;;;;;15.09;92.69;97991.78;5012077;28;20111;-57
2022/09/25 09:06:07;;;;;;;5.95;4.13;;;;;;;15.11;91.04;97992.41;5021571;28;20067;-57
2022/09/25 09:08:35;;;;;;;6.03;4.20;;;;;;;15.08;91.97;97996.22;5008511;28;20516;-58
2022/09/25 09:11:07;;;;;;;6.47;4.22;;;;;;;15.12;91.19;97992.22;4992902;28;20056;-56
2022/09/25 09:13:43;;;;;;;5.70;3.70;;;;;;;15.22;91.79;97994.50;5011166;28;20140;-56
2022/09/25 09:16:34;;;;;;;7.30;3.63;;;;;;;15.27;88.07;97996.56;5012235;28;20763;-57
2022/09/25 09:19:02;;;;;;;6.88;3.83;;;;;;;15.07;87.98;97957.94;4999803;28;20353;-58
2022/09/25 09:21:34;;;;;;;6.97;3.88;;;;;;;15.35;87.47;97993.78;5001036;28;20028;-56
2022/09/25 09:24:17;;;;;;;5.50;3.47;;;;;;;15.28;86.42;97974.63;4998806;28;20119;-57
2022/09/25 09:26:56;;;;;;;6.55;3.42;;;;;;;15.35;84.45;97993.78;5015154;28;20045;-57
2022/09/25 09:29:54;;;;;;;4.90;2.92;;;;;;;15.28;84.94;97957.09;5022978;28;20041;-57
2022/09/25 09:32:19;;;;;;;4.30;2.58;;;;;;;15.67;85.77;97996.84;4987067;28;20061;-59
2022/09/25 09:35:16;;;;;;;3.90;2.00;;;;;;;15.69;82.21;98000.09;5019213;28;20449;-57
2022/09/25 09:38:09;;;;;;;4.40;2.22;;;;;;;15.79;82.60;97997.13;4996436;28;20029;-58
2022/09/25 09:40:54;;;;;;;5.15;2.22;;;;;;;15.80;80.37;97983.03;4994572;28;20782;-58
2022/09/25 09:43:41;;;;;;;5.25;2.97;;;;;;;15.83;83.63;97987.91;5017804;28;20419;-58
2022/09/25 09:46:22;;;;;;;4.20;2.25;;;;;;;15.93;84.17;97989.19;5015630;28;20037;-58
2022/09/25 09:48:54;;;;;;;5.57;3.30;;;;;;;15.65;82.77;97962.97;4994243;28;20128;-57
2022/09/25 09:51:31;;;;;;;5.30;2.80;;;;;;;15.81;83.32;97989.88;5027386;28;20050;-58
2022/09/25 09:54:02;;;;;;;5.15;3.33;;;;;;;15.71;82.70;97995.47;5007401;28;20033;-57
2022/09/25 09:56:31;;;;;;;4.88;3.25;;;;;;;15.70;83.41;97986.00;5015392;28;20366;-58
2022/09/25 09:59:03;;;;;;;4.85;3.15;;;;;;;15.79;83.72;97992.72;5018070;28;20014;-59
2022/09/25 10:01:33;;;;;;;5.15;3.10;;;;;;;15.72;84.05;97990.03;5022511;28;20423;-57
2022/09/25 10:04:03;;;;;;;4.65;2.80;;;;;;;15.90;84.29;97991.38;5020908;28;20033;-58
2022/09/25 10:06:31;;;;;;;4.28;2.50;;;;;;;15.78;82.80;97993.72;5021463;28;20037;-58
2022/09/25 10:08:56;;;;;;;4.60;2.53;;;;;;;16.04;85.13;97989.63;5001243;28;20041;-59
2022/09/25 10:11:22;;;;;;;4.65;2.88;;;;;;;16.20;85.30;97986.66;5016887;28;20126;-59
2022/09/25 10:13:48;;;;;;;5.00;2.92;;;;;;;16.32;82.28;97979.84;5023097;28;20330;-57
2022/09/25 10:16:23;;;;;;;6.97;2.90;;;;;;;16.53;80.59;97983.34;5005331;28;20060;-59
2022/09/25 10:18:53;;;;;;;4.20;2.15;;;;;;;16.51;78.95;97946.78;5016321;28;20043;-58
2022/09/25 10:21:21;;;;;;;3.97;2.08;;;;;;;16.57;78.67;97944.38;5021937;28;20211;-59
2022/09/25 10:23:53;;;;;;;3.90;2.00;;;;;;;16.87;76.31;97976.38;5021072;28;20025;-58
2022/09/25 10:26:36;;;;;;;3.80;2.00;;;;;;;16.66;75.80;97932.69;5020602;28;20493;-60
2022/09/25 10:29:20;;;;;;;4.10;1.85;;;;;;;17.06;75.14;97972.94;5025207;28;20014;-58
2022/09/25 10:31:46;;;;;;;4.38;2.38;;;;;;;17.05;75.92;97973.94;5018535;28;20026;-57
2022/09/25 10:34:11;;;;;;;6.53;2.53;;;;;;;17.32;77.19;97976.56;5023681;28;20036;-59
2022/09/25 10:36:37;;;;;;;5.63;2.35;;;;;;;17.29;76.75;97935.75;5015729;28;20109;-57
2022/09/25 10:39:04;;;;;;;3.90;2.10;;;;;;;17.35;75.68;97935.94;5020669;28;20045;-59
2022/09/25 10:41:40;;;;;;;4.40;2.42;;;;;;;17.48;74.97;97965.63;5001762;28;20033;-58
2022/09/25 10:44:37;;;;;;;4.95;2.20;;;;;;;17.43;75.88;97954.94;5005259;28;20043;-59
2022/09/25 10:50:14;;;;;;;4.65;2.00;;;;;;;17.49;75.03;97951.47;5016999;28;20087;-59
2022/09/25 10:52:51;;;;;;;4.25;2.35;;;;;;;17.59;74.52;97947.63;5022457;28;20060;-58
2022/09/25 10:55:33;;;;;;;5.20;2.15;;;;;;;17.70;74.90;97960.13;5033676;28;20037;-57
2022/09/25 10:58:12;;;;;;;4.93;2.45;;;;;;;17.92;74.71;97952.81;5005104;28;20045;-59
2022/09/25 11:00:46;;;;;;;6.22;2.30;;;;;;;17.82;73.62;97942.69;5014018;28;20033;-58
2022/09/25 11:03:24;;;;;;;5.35;2.60;;;;;;;17.96;72.91;97947.94;5033108;28;20124;-58
2022/09/25 11:06:02;;;;;;;4.05;2.15;;;;;;;18.00;73.42;97947.31;5003190;28;20047;-58
2022/09/25 11:08:29;;;;;;;4.05;2.30;;;;;;;17.97;72.75;97939.03;5014869;28;20426;-60
2022/09/25 11:10:59;;;;;;;4.80;2.40;;;;;;;17.85;73.11;97944.94;4998327;28;20034;-60
2022/09/25 11:13:35;;;;;;;4.90;2.10;;;;;;;17.78;73.35;97936.25;5020494;28;20608;-58
2022/09/25 11:16:02;;;;;;;4.63;2.80;;;;;;;17.77;73.04;97939.09;5014873;28;20051;-58
2022/09/25 11:18:38;;;;;;;4.70;2.65;;;;;;;17.91;71.71;97934.63;5004050;28;20144;-60
2022/09/25 11:21:05;;;;;;;4.30;2.30;;;;;;;17.83;71.92;97917.22;5019504;28;20071;-58
2022/09/25 11:23:40;;;;;;;4.35;2.30;;;;;;;17.85;74.12;97917.84;5020817;28;20029;-58
2022/09/25 11:26:05;;;;;;;5.72;2.75;;;;;;;17.92;73.56;97920.44;5021787;28;20025;-58
2022/09/25 11:28:37;;;;;;;4.50;2.50;;;;;;;17.89;73.86;97923.47;5033153;28;21418;-59
2022/09/25 11:31:05;;;;;;;5.57;2.70;;;;;;;17.84;73.39;97913.56;5037210;28;20022;-60
2022/09/25 11:33:51;;;;;;;5.07;2.78;;;;;;;17.72;73.27;97916.03;5019150;28;20057;-59
2022/09/25 11:36:39;;;;;;;5.50;2.70;;;;;;;17.70;73.22;97918.06;5021113;28;20083;-58
2022/09/25 11:42:17;;;;;;;4.45;2.40;;;;;;;17.77;73.09;97900.44;5019451;28;20024;-57
2022/09/25 11:44:53;;;;;;;4.88;3.05;;;;;;;17.86;71.95;97906.31;5019886;28;20064;-57
2022/09/25 11:47:39;;;;;;;4.75;2.85;;;;;;;17.93;72.64;97904.47;5019238;28;20127;-60
2022/09/25 11:50:14;;;;;;;4.93;2.90;;;;;;;17.96;72.03;97896.16;5033782;28;20597;-58
2022/09/25 11:52:46;;;;;;;4.75;2.70;;;;;;;18.02;71.40;97884.78;5019810;28;20681;-58